»·PEaware :: ROU8833 CYVR-KPDX

ROU8833 :: CYVR-KPDX

FLIGHT INFORMATION

Flight Status: Arrived
Operator: Unknown
More flights by this operator :: More flights under this callsign
Pilot: Cooper L. (8467)
Aircraft: BOEING 757-200
(B752)
More flights by this aircraft type
Origin: CYVR Vancouver Intl
Canada
Destination: KPDX Portland Intl
United States
More flights between these airports :: More routes between these airports
Route: YVR SEA BUWZO KRATR2
File this flight plan on PilotEdge
Remarks:
Altitude:
(Current/Filed)
29,000ft
Speed:
(Current/Filed)
450kts
Departed: 06-Dec-15 04:27 PM
Arrived: 06-Dec-15 05:12 PM
Distance/Time
Traveled:
218nm/0:44
Distance/Time
To Go:
Arrived

Flight Plot

Page will automatically refresh every two minutes.


Map Options




Map Legend


Flown Route
Filed Route
Departure Airport
Arrival Airport
Navaid (VOR, NDB)
Fix

Horizontal Profiles

Position Reports

Time Latitude Longitude Heading Altitude Ground
Speed
06-Dec-15 16:07 49.196550 -123.184431 177 26ft 0kts
06-Dec-15 16:08 49.196550 -123.184431 177 26ft 0kts
06-Dec-15 16:09 49.196550 -123.184431 177 26ft 0kts
06-Dec-15 16:10 49.196550 -123.184431 177 26ft 0kts
06-Dec-15 16:11 49.196550 -123.184431 177 26ft 0kts
06-Dec-15 16:12 49.197157 -123.184219 262 26ft 5kts
06-Dec-15 16:13 49.197639 -123.188596 303 26ft 18kts
06-Dec-15 16:14 49.196788 -123.191446 194 26ft 19kts
06-Dec-15 16:15 49.192913 -123.195781 259 26ft 32kts
06-Dec-15 16:16 49.191995 -123.205565 324 26ft 0kts
06-Dec-15 16:17 49.191995 -123.205565 324 26ft 0kts
06-Dec-15 16:18 49.191995 -123.205565 324 26ft 0kts
06-Dec-15 16:19 49.191995 -123.205565 324 26ft 0kts
06-Dec-15 16:20 49.192931 -123.206737 258 26ft 0kts
06-Dec-15 16:21 49.192877 -123.207029 249 26ft 13kts
06-Dec-15 16:22 49.191320 -123.207931 209 26ft 9kts
06-Dec-15 16:23 49.190085 -123.207617 102 26ft 0kts
06-Dec-15 16:24 49.189783 -123.205202 100 26ft 51kts
06-Dec-15 16:25 49.180607 -123.151454 134 2081ft 183kts
06-Dec-15 16:26 49.132824 -123.136076 179 5502ft 199kts
06-Dec-15 16:27 49.070933 -123.122833 165 8211ft 252kts
06-Dec-15 16:28 49.002501 -123.091488 170 10880ft 303kts
06-Dec-15 16:29 48.912256 -123.048138 169 13296ft 366kts
06-Dec-15 16:30 48.816382 -122.999443 169 16541ft 386kts
06-Dec-15 16:31 48.713044 -122.945072 169 19346ft 407kts
06-Dec-15 16:32 48.605466 -122.891246 170 21722ft 424kts
06-Dec-15 16:33 48.495388 -122.836591 170 23753ft 440kts
06-Dec-15 16:34 48.380578 -122.778936 170 25601ft 453kts
06-Dec-15 16:35 48.265527 -122.719783 170 27679ft 452kts
06-Dec-15 16:36 48.151953 -122.664382 171 28939ft 452kts
06-Dec-15 16:37 48.037145 -122.607885 170 28949ft 453kts
06-Dec-15 16:38 47.917449 -122.548088 169 28969ft 485kts
06-Dec-15 16:39 47.793972 -122.486133 169 28971ft 493kts
06-Dec-15 16:40 47.670379 -122.425513 170 28994ft 494kts
06-Dec-15 16:41 47.549212 -122.367715 170 28997ft 493kts
06-Dec-15 16:42 47.424656 -122.314921 183 28989ft 475kts
06-Dec-15 16:43 47.297059 -122.311702 189 28984ft 467kts
06-Dec-15 16:44 47.169892 -122.311051 189 28984ft 468kts
06-Dec-15 16:45 47.041109 -122.311448 188 27110ft 466kts
06-Dec-15 16:46 46.921455 -122.311673 190 24160ft 421kts
06-Dec-15 16:47 46.810747 -122.313669 188 22118ft 408kts
06-Dec-15 16:48 46.701132 -122.313816 188 20801ft 398kts
06-Dec-15 16:49 46.592366 -122.313418 188 19118ft 393kts
06-Dec-15 16:50 46.504732 -122.312452 189 17581ft 386kts
06-Dec-15 16:51 46.386690 -122.312347 189 15403ft 376kts
06-Dec-15 16:52 46.303850 -122.313341 189 14438ft 367kts
06-Dec-15 16:53 46.194189 -122.350136 208 13088ft 357kts
06-Dec-15 16:54 46.105777 -122.399057 208 11749ft 337kts
06-Dec-15 16:55 46.034673 -122.437719 206 10517ft 328kts
06-Dec-15 16:56 45.952846 -122.478773 204 9026ft 320kts
06-Dec-15 16:57 45.887825 -122.545170 221 7485ft 311kts
06-Dec-15 16:58 45.823791 -122.625756 219 5446ft 305kts
06-Dec-15 16:59 45.770577 -122.697638 225 4637ft 223kts
06-Dec-15 17:00 45.757391 -122.774397 288 4280ft 232kts
06-Dec-15 17:01 45.775899 -122.855199 245 3458ft 188kts
06-Dec-15 17:02 45.734743 -122.876550 201 2750ft 177kts
06-Dec-15 17:03 45.692547 -122.870305 119 2240ft 174kts
06-Dec-15 17:04 45.673545 -122.806741 117 2265ft 174kts
06-Dec-15 17:05 45.655617 -122.752578 113 2185ft 119kts
06-Dec-15 17:06 45.640193 -122.710579 119 1490ft 123kts
06-Dec-15 17:07 45.623811 -122.669281 118 1154ft 120kts
06-Dec-15 17:08 45.606937 -122.626784 119 515ft 140kts
06-Dec-15 17:09 45.592392 -122.589598 119 41ft 40kts
06-Dec-15 17:10 45.588886 -122.582101 204 41ft 11kts
06-Dec-15 17:11 45.588546 -122.585155 299 41ft 8kts
06-Dec-15 17:12 45.590305 -122.589539 299 41ft 25kts
06-Dec-15 17:13 45.591152 -122.594052 212 41ft 0kts
06-Dec-15 17:14 45.591103 -122.594096 211 41ft 0kts
06-Dec-15 17:15 45.591103 -122.594096 211 41ft 0kts

Navigation Log

Ident Type
Flight plan parsing failed, navigation log unavailable